createdAt,value
2017-06-15T00:00:25.061Z,10.63
2017-06-15T00:02:51.026Z,10.30
2017-06-15T00:05:17.116Z,10.20
2017-06-15T00:07:45.787Z,11.57
2017-06-15T00:10:13.620Z,9.83
2017-06-15T00:12:42.025Z,10.60
2017-06-15T00:15:12.154Z,10.03
2017-06-15T00:17:39.174Z,9.77
2017-06-15T00:20:09.099Z,9.67
2017-06-15T00:22:35.100Z,9.77
2017-06-15T00:25:01.855Z,9.67
2017-06-15T00:27:27.997Z,9.93
2017-06-15T00:29:55.333Z,10.43
2017-06-15T00:32:23.496Z,9.80
2017-06-15T00:34:52.635Z,10.53
2017-06-15T00:37:20.147Z,10.20
2017-06-15T00:39:47.998Z,10.17
2017-06-15T00:42:14.395Z,11.17
2017-06-15T00:44:42.146Z,10.07
2017-06-15T00:47:10.478Z,10.30
2017-06-15T00:49:36.806Z,11.03
2017-06-15T00:52:02.816Z,10.97
2017-06-15T00:54:30.610Z,10.83
2017-06-15T00:57:01.571Z,12.60
2017-06-15T00:59:28.588Z,11.73
2017-06-15T01:01:55.908Z,10.87
2017-06-15T01:04:21.953Z,10.73
2017-06-15T01:09:28.647Z,10.67
2017-06-15T01:11:55.540Z,12.47
2017-06-15T01:14:22.476Z,10.97
2017-06-15T01:16:49.135Z,10.33
2017-06-15T01:19:16.477Z,11.03
2017-06-15T01:21:42.570Z,10.00
2017-06-15T01:24:09.788Z,10.70
2017-06-15T01:26:37.335Z,11.90
2017-06-15T01:29:04.254Z,11.00
2017-06-15T01:31:32.080Z,11.37
2017-06-15T01:34:00.378Z,10.97
2017-06-15T01:36:27.393Z,10.90
2017-06-15T01:38:54.438Z,11.33
2017-06-15T01:41:20.655Z,11.40
2017-06-15T01:43:47.017Z,11.60
2017-06-15T01:46:13.418Z,11.50
2017-06-15T01:48:45.108Z,12.00
2017-06-15T01:51:12.691Z,10.23
2017-06-15T01:53:38.729Z,10.30
2017-06-15T01:56:04.907Z,10.60
2017-06-15T01:58:31.558Z,11.43
2017-06-15T02:00:58.187Z,10.27
2017-06-15T02:03:26.883Z,9.73
2017-06-15T02:05:54.101Z,10.73
2017-06-15T02:08:20.906Z,12.47
2017-06-15T02:10:47.405Z,10.50
2017-06-15T02:13:15.230Z,10.80
2017-06-15T02:15:43.231Z,11.17
2017-06-15T02:18:09.866Z,9.80
2017-06-15T02:20:35.882Z,10.07
2017-06-15T02:23:01.866Z,8.70
2017-06-15T02:25:27.831Z,10.43
2017-06-15T02:27:54.952Z,8.60
2017-06-15T02:30:21.940Z,9.57
2017-06-15T02:32:49.585Z,9.40
2017-06-15T02:35:15.611Z,9.27
2017-06-15T02:37:42.988Z,8.50
2017-06-15T02:42:41.934Z,9.87
2017-06-15T02:45:10.532Z,9.07
2017-06-15T02:47:37.247Z,13.13
2017-06-15T02:50:05.037Z,9.00
2017-06-15T02:52:31.080Z,9.60
2017-06-15T02:54:57.133Z,9.47
2017-06-15T02:57:25.697Z,9.73
2017-06-15T02:59:52.558Z,9.73
2017-06-15T03:02:19.431Z,9.63
2017-06-15T03:04:48.433Z,9.80
2017-06-15T03:07:14.912Z,11.03
2017-06-15T03:09:40.931Z,9.00
2017-06-15T03:12:09.026Z,12.37
2017-06-15T03:14:36.905Z,11.20
2017-06-15T03:17:03.743Z,9.70
2017-06-15T03:19:29.789Z,9.43
2017-06-15T03:21:55.931Z,10.90
2017-06-15T03:24:21.987Z,9.53
2017-06-15T03:26:48.765Z,10.73
2017-06-15T03:29:15.452Z,10.20
2017-06-15T03:31:42.454Z,9.20
2017-06-15T03:34:10.806Z,10.20
2017-06-15T03:36:36.858Z,10.50
2017-06-15T03:39:02.989Z,10.40
2017-06-15T03:41:29.238Z,9.27
2017-06-15T03:43:55.268Z,10.63
2017-06-15T03:46:21.517Z,9.50
2017-06-15T03:48:48.219Z,11.17
2017-06-15T03:51:14.769Z,10.10
2017-06-15T03:53:43.016Z,10.50
2017-06-15T03:56:09.148Z,11.17
2017-06-15T03:58:36.764Z,11.43
2017-06-15T04:01:03.617Z,10.40
2017-06-15T04:03:31.334Z,10.40
2017-06-15T04:05:58.078Z,11.83
2017-06-15T04:08:24.487Z,11.67
2017-06-15T04:10:50.737Z,12.23
2017-06-15T04:13:17.842Z,11.17
2017-06-15T04:15:46.061Z,12.80
2017-06-15T04:18:13.661Z,10.43
2017-06-15T04:20:41.854Z,11.20
2017-06-15T04:23:09.468Z,9.20
2017-06-15T04:25:37.174Z,11.23
2017-06-15T04:28:03.225Z,9.33
2017-06-15T04:30:30.590Z,10.50
2017-06-15T04:32:57.351Z,10.53
2017-06-15T04:35:23.312Z,9.90
2017-06-15T04:37:49.872Z,10.30
2017-06-15T04:40:17.824Z,10.80
2017-06-15T04:42:48.619Z,10.80
2017-06-15T04:45:16.620Z,11.93
2017-06-15T04:47:45.078Z,12.60
2017-06-15T04:50:12.671Z,10.53
2017-06-15T04:52:39.346Z,11.60
2017-06-15T04:55:08.907Z,11.77
2017-06-15T04:57:34.863Z,9.17
2017-06-15T05:00:03.411Z,9.70
2017-06-15T05:02:29.688Z,9.77
2017-06-15T05:04:55.718Z,10.70
2017-06-15T05:07:21.964Z,9.70
2017-06-15T05:09:50.983Z,9.37
2017-06-15T05:12:18.515Z,10.63
2017-06-15T05:14:47.225Z,11.77
2017-06-15T05:17:14.823Z,10.47
2017-06-15T05:19:44.352Z,10.97
2017-06-15T05:22:11.334Z,11.23
2017-06-15T05:24:38.907Z,9.73
2017-06-15T05:27:04.973Z,10.53
2017-06-15T05:29:32.537Z,10.83
2017-06-15T05:31:59.770Z,10.73
2017-06-15T05:34:25.798Z,10.40
2017-06-15T05:36:52.794Z,10.37
2017-06-15T05:39:19.688Z,10.33
2017-06-15T05:41:45.919Z,8.50
2017-06-15T05:44:11.900Z,10.93
2017-06-15T05:46:37.928Z,10.70
2017-06-15T05:49:04.639Z,10.93
2017-06-15T05:51:30.830Z,10.13
2017-06-15T05:53:57.827Z,10.33
2017-06-15T05:56:24.103Z,10.60
2017-06-15T05:58:55.753Z,11.07
2017-06-15T06:01:21.774Z,11.20
2017-06-15T06:03:47.770Z,11.37
2017-06-15T06:06:15.077Z,12.67
2017-06-15T06:08:41.067Z,11.50
2017-06-15T06:11:11.448Z,11.20
2017-06-15T06:13:37.905Z,11.97
2017-06-15T06:16:05.282Z,11.50
2017-06-15T06:18:31.313Z,12.47
2017-06-15T06:20:59.695Z,11.50
2017-06-15T06:23:26.952Z,10.53
2017-06-15T06:25:55.308Z,11.33
2017-06-15T06:28:21.306Z,10.50
2017-06-15T06:30:50.737Z,11.13
2017-06-15T06:33:16.797Z,10.73
2017-06-15T06:35:46.043Z,11.07
2017-06-15T06:38:16.302Z,11.40
2017-06-15T06:40:43.170Z,10.90
2017-06-15T06:43:11.319Z,10.63
2017-06-15T06:45:38.207Z,9.80
2017-06-15T06:48:07.634Z,10.23
2017-06-15T06:50:35.516Z,10.83
2017-06-15T06:53:01.496Z,11.63
2017-06-15T06:55:31.747Z,10.13
2017-06-15T06:58:01.747Z,8.70
2017-06-15T07:00:29.063Z,10.00
2017-06-15T07:02:57.085Z,13.67
2017-06-15T07:05:25.701Z,9.30
2017-06-15T07:07:52.845Z,8.43
2017-06-15T07:10:19.951Z,10.67
2017-06-15T07:12:49.418Z,10.10
2017-06-15T07:15:16.220Z,9.60
2017-06-15T07:17:43.472Z,18.27
2017-06-15T07:20:11.931Z,11.03
2017-06-15T07:22:37.954Z,10.27
2017-06-15T07:25:08.737Z,9.97
2017-06-15T07:27:37.724Z,9.23
2017-06-15T07:30:05.130Z,11.13
2017-06-15T07:32:31.678Z,13.53
2017-06-15T07:34:57.864Z,11.73
2017-06-15T07:37:24.617Z,11.03
2017-06-15T07:39:51.749Z,12.50
2017-06-15T07:42:19.193Z,11.47
2017-06-15T07:44:45.158Z,11.80
2017-06-15T07:47:11.221Z,12.07
2017-06-15T07:49:43.956Z,11.30
2017-06-15T07:52:13.230Z,11.67
2017-06-15T07:54:46.869Z,14.57
2017-06-15T07:57:17.978Z,11.03
2017-06-15T07:59:46.791Z,11.67
2017-06-15T08:02:15.302Z,11.50
2017-06-15T08:04:42.375Z,10.60
2017-06-15T08:07:09.740Z,11.37
2017-06-15T08:09:36.624Z,10.87
2017-06-15T08:12:02.632Z,13.03
2017-06-15T08:14:29.257Z,12.53
2017-06-15T08:16:55.273Z,11.10
2017-06-15T08:19:23.319Z,10.30
2017-06-15T08:21:50.909Z,10.60
2017-06-15T08:24:18.969Z,10.07
2017-06-15T08:26:44.970Z,10.37
2017-06-15T08:29:13.419Z,10.63
2017-06-15T08:31:40.297Z,11.67
2017-06-15T08:34:07.339Z,11.67
2017-06-15T08:36:36.294Z,10.83
2017-06-15T08:39:03.127Z,10.83
2017-06-15T08:41:30.328Z,9.60
2017-06-15T08:43:56.348Z,11.70
2017-06-15T08:46:22.389Z,9.77
2017-06-15T08:48:49.457Z,10.20
2017-06-15T08:51:15.501Z,11.10
2017-06-15T08:53:41.479Z,11.37
2017-06-15T08:56:07.512Z,10.27
2017-06-15T08:58:33.456Z,10.00
2017-06-15T09:01:00.361Z,9.23
2017-06-15T09:03:26.346Z,9.60
2017-06-15T09:05:52.300Z,10.40
2017-06-15T09:08:18.280Z,10.27
2017-06-15T09:10:44.781Z,9.83
2017-06-15T09:13:11.195Z,10.80
2017-06-15T09:15:37.251Z,10.20
2017-06-15T09:18:03.302Z,9.80
2017-06-15T09:20:29.295Z,9.50
2017-06-15T09:22:55.314Z,10.00
2017-06-15T09:25:22.810Z,9.87
2017-06-15T09:27:52.255Z,8.13
2017-06-15T09:30:20.078Z,9.90
2017-06-15T09:32:54.170Z,9.07
2017-06-15T09:38:01.340Z,9.43
2017-06-15T09:40:30.077Z,8.60
2017-06-15T09:43:02.091Z,9.23
2017-06-15T09:48:15.737Z,9.27
2017-06-15T09:53:39.236Z,9.60
2017-06-15T09:56:12.116Z,8.10
2017-06-15T09:59:02.319Z,8.17
2017-06-15T10:04:52.917Z,9.03
2017-06-15T10:09:58.272Z,9.20
2017-06-15T10:12:30.271Z,9.27
2017-06-15T10:14:57.046Z,9.13
2017-06-15T10:17:26.338Z,8.60
2017-06-15T10:19:55.020Z,9.40
2017-06-15T10:22:25.456Z,8.83
2017-06-15T10:24:52.031Z,8.10
2017-06-15T10:27:22.646Z,8.40
2017-06-15T10:29:51.542Z,8.33
2017-06-15T10:32:22.594Z,7.60
2017-06-15T10:37:22.222Z,7.73
2017-06-15T10:39:49.216Z,7.90
2017-06-15T10:42:22.182Z,8.40
2017-06-15T10:45:21.904Z,7.00
2017-06-15T10:47:50.637Z,9.03
2017-06-15T10:52:59.234Z,8.57
2017-06-15T10:57:56.906Z,8.50
2017-06-15T11:00:27.878Z,7.67
2017-06-15T11:02:56.241Z,7.90
2017-06-15T11:05:27.451Z,7.30
2017-06-15T11:07:55.654Z,7.10
2017-06-15T11:10:40.596Z,8.17
2017-06-15T11:13:14.975Z,7.30
2017-06-15T11:15:47.785Z,7.40
2017-06-15T11:18:14.225Z,7.67
2017-06-15T11:20:40.732Z,7.97
2017-06-15T11:23:08.822Z,7.73
2017-06-15T11:25:36.695Z,8.10
2017-06-15T11:28:05.373Z,7.60
2017-06-15T11:35:57.514Z,7.17
2017-06-15T11:38:24.876Z,7.80
2017-06-15T11:40:54.114Z,7.23
2017-06-15T11:46:00.790Z,7.00
2017-06-15T11:48:27.909Z,6.47
2017-06-15T11:53:26.448Z,7.00
2017-06-15T11:55:54.003Z,6.97
2017-06-15T11:58:21.232Z,7.67
2017-06-15T12:00:49.837Z,7.33
2017-06-15T12:03:18.723Z,7.30
2017-06-15T12:05:48.925Z,6.30
2017-06-15T12:10:48.516Z,7.03
2017-06-15T12:13:15.416Z,7.30
2017-06-15T12:15:42.821Z,6.93
2017-06-15T12:18:10.556Z,8.13
2017-06-15T12:20:38.631Z,6.87
2017-06-15T12:23:08.420Z,7.10
2017-06-15T12:25:38.479Z,7.07
2017-06-15T12:28:07.032Z,7.33
2017-06-15T12:30:33.886Z,6.63
2017-06-15T12:35:49.400Z,6.67
2017-06-15T12:38:24.317Z,6.23
2017-06-15T12:40:51.588Z,6.73
2017-06-15T12:43:21.181Z,7.00
2017-06-15T12:45:49.070Z,7.87
2017-06-15T12:48:15.188Z,7.40
2017-06-15T12:50:41.264Z,6.40
2017-06-15T12:53:08.313Z,6.43
2017-06-15T12:55:35.218Z,9.60
2017-06-15T12:58:01.314Z,7.20
2017-06-15T13:00:27.345Z,6.10
2017-06-15T13:02:54.410Z,5.62
2017-06-15T13:05:22.329Z,6.62
2017-06-15T13:07:49.762Z,6.13
2017-06-15T13:10:16.846Z,6.27
2017-06-15T13:12:43.535Z,7.00
2017-06-15T13:15:09.530Z,5.97
2017-06-15T13:17:35.666Z,6.30
2017-06-15T13:20:02.854Z,8.50
2017-06-15T13:22:31.962Z,6.57
2017-06-15T13:24:58.033Z,6.67
2017-06-15T13:27:24.024Z,6.10
2017-06-15T13:29:50.885Z,6.07
2017-06-15T13:35:03.662Z,6.23
2017-06-15T13:37:31.742Z,6.13
2017-06-15T13:39:59.233Z,7.63
2017-06-15T13:42:26.686Z,6.70
2017-06-15T13:44:59.432Z,6.13
2017-06-15T13:47:25.435Z,5.73
2017-06-15T13:49:51.534Z,5.67
2017-06-15T13:52:18.729Z,6.93
2017-06-15T13:54:45.412Z,8.23
2017-06-15T13:57:11.557Z,5.60
2017-06-15T13:59:38.374Z,5.60
2017-06-15T14:02:05.164Z,6.57
2017-06-15T14:04:32.055Z,6.20
2017-06-15T14:07:00.077Z,5.93
2017-06-15T14:09:26.125Z,6.10
2017-06-15T14:11:54.431Z,6.17
2017-06-15T14:14:21.015Z,5.80
2017-06-15T14:16:50.033Z,5.17
2017-06-15T14:19:17.969Z,6.17
2017-06-15T14:21:46.601Z,5.10
2017-06-15T14:24:14.490Z,5.43
2017-06-15T14:26:43.923Z,6.30
2017-06-15T14:29:12.821Z,5.07
2017-06-15T14:34:13.063Z,5.80
2017-06-15T14:36:40.366Z,5.68
2017-06-15T14:39:14.841Z,5.43
2017-06-15T14:41:44.131Z,5.43
2017-06-15T14:44:10.837Z,5.53
2017-06-15T14:46:39.643Z,5.45
2017-06-15T14:49:11.692Z,5.00
2017-06-15T14:51:43.285Z,5.90
2017-06-15T14:54:11.010Z,5.33
2017-06-15T14:56:39.234Z,6.10
2017-06-15T14:59:07.396Z,6.07
2017-06-15T15:01:38.735Z,6.33
2017-06-15T15:06:44.030Z,6.50
2017-06-15T15:12:07.765Z,6.03
2017-06-15T15:22:24.335Z,7.37
2017-06-15T15:24:52.507Z,6.97
2017-06-15T15:27:22.951Z,6.77
2017-06-15T15:29:52.219Z,7.07
2017-06-15T15:32:19.370Z,7.53
2017-06-15T15:34:47.175Z,7.73
2017-06-15T15:37:17.037Z,7.07
2017-06-15T15:44:47.225Z,7.70
2017-06-15T15:47:15.304Z,7.50
2017-06-15T15:52:15.050Z,8.33
2017-06-15T15:57:25.885Z,7.30
2017-06-15T16:23:37.810Z,8.83
2017-06-15T16:26:10.127Z,8.80
2017-06-15T16:33:43.203Z,7.60
2017-06-15T16:38:47.022Z,8.37
2017-06-15T16:43:46.152Z,7.03
2017-06-15T16:46:13.934Z,7.13
2017-06-15T16:48:42.133Z,8.20
2017-06-15T17:12:22.873Z,9.03
2017-06-15T17:25:25.554Z,8.30
2017-06-15T17:27:54.566Z,8.00
2017-06-15T17:30:20.947Z,8.90
2017-06-15T17:32:47.606Z,8.20
2017-06-15T17:35:15.720Z,7.70
2017-06-15T17:37:43.524Z,8.70
2017-06-15T17:42:43.022Z,8.90
2017-06-15T17:45:09.074Z,11.77
2017-06-15T17:47:35.079Z,11.73
2017-06-15T17:50:25.259Z,11.30
2017-06-15T17:52:55.877Z,11.30
2017-06-15T17:55:22.879Z,14.47
2017-06-15T18:10:41.916Z,18.20
2017-06-15T18:13:08.125Z,14.97
2017-06-15T18:15:34.441Z,17.50
2017-06-15T18:18:01.203Z,16.40
2017-06-15T18:20:28.435Z,14.90
2017-06-15T18:22:55.115Z,15.40
2017-06-15T18:25:21.127Z,14.43
2017-06-15T18:27:47.160Z,15.20
2017-06-15T18:30:13.797Z,13.40
2017-06-15T18:32:48.213Z,14.13
2017-06-15T18:35:14.210Z,12.27
2017-06-15T18:37:41.277Z,13.97
2017-06-15T18:40:07.574Z,11.70
2017-06-15T18:42:33.865Z,13.70
2017-06-15T18:45:00.861Z,11.07
2017-06-15T18:47:27.059Z,11.67
2017-06-15T18:49:54.481Z,12.10
2017-06-15T18:52:20.429Z,10.47
2017-06-15T18:54:46.475Z,12.20
2017-06-15T18:57:13.195Z,10.90
2017-06-15T18:59:39.209Z,12.33
2017-06-15T19:02:07.324Z,10.93
2017-06-15T19:04:33.293Z,12.53
2017-06-15T19:06:59.540Z,10.07
2017-06-15T19:09:26.539Z,10.90
2017-06-15T19:11:53.699Z,10.23
2017-06-15T19:14:19.959Z,11.00
2017-06-15T19:16:47.349Z,13.17
2017-06-15T19:19:13.372Z,11.03
2017-06-15T19:21:46.640Z,10.10
2017-06-15T19:24:12.638Z,12.13
2017-06-15T19:26:38.839Z,10.80
2017-06-15T19:29:05.124Z,10.77
2017-06-15T19:31:31.266Z,14.00
2017-06-15T19:33:58.992Z,10.40
2017-06-15T19:36:25.043Z,10.37
2017-06-15T19:38:51.037Z,9.93
2017-06-15T19:41:17.089Z,9.10
2017-06-15T19:43:43.107Z,7.30
2017-06-15T19:46:09.171Z,7.93
2017-06-15T19:48:35.207Z,8.47
2017-06-15T19:51:05.267Z,6.70
2017-06-15T19:53:32.715Z,7.13
2017-06-15T19:55:58.739Z,7.77
2017-06-15T19:58:24.676Z,6.50
2017-06-15T20:00:53.781Z,6.60
2017-06-15T20:03:21.319Z,6.10
2017-06-15T20:05:47.360Z,7.20
2017-06-15T20:08:13.568Z,6.77
2017-06-15T20:10:41.225Z,8.40
2017-06-15T20:13:09.905Z,8.07
2017-06-15T20:15:37.988Z,8.13
2017-06-15T20:18:05.870Z,12.57
2017-06-15T20:23:16.137Z,9.23
2017-06-15T20:25:42.912Z,9.67
2017-06-15T20:28:09.920Z,8.40
2017-06-15T20:30:37.366Z,8.70
2017-06-15T20:33:03.485Z,9.87
2017-06-15T20:35:29.420Z,10.60
2017-06-15T20:37:55.428Z,9.27
2017-06-15T20:40:23.343Z,14.73
2017-06-15T20:42:50.252Z,9.17
2017-06-15T20:45:18.805Z,11.00
2017-06-15T20:47:45.548Z,9.80
2017-06-15T20:50:11.792Z,9.50
2017-06-15T20:52:40.304Z,8.43
2017-06-15T20:55:08.784Z,9.67
2017-06-15T20:57:44.879Z,9.77
2017-06-15T21:00:13.315Z,10.80
2017-06-15T21:02:39.348Z,10.33
2017-06-15T21:05:05.350Z,10.37
2017-06-15T21:07:35.485Z,9.93
2017-06-15T21:10:03.009Z,10.83
2017-06-15T21:15:21.789Z,10.87
2017-06-15T21:17:51.058Z,9.83
2017-06-15T21:23:25.429Z,10.10
2017-06-15T21:25:52.138Z,10.60
2017-06-15T21:28:22.316Z,11.00
2017-06-15T21:30:49.950Z,8.83
2017-06-15T21:33:18.101Z,9.90
2017-06-15T21:35:48.858Z,10.60
2017-06-15T21:38:14.915Z,10.83
2017-06-15T21:40:48.146Z,9.60
2017-06-15T21:43:20.551Z,8.80
2017-06-15T21:45:50.454Z,9.43
2017-06-15T21:48:16.613Z,11.43
2017-06-15T21:50:42.658Z,10.03
2017-06-15T21:53:11.121Z,10.73
2017-06-15T21:55:38.619Z,10.17
2017-06-15T21:58:07.204Z,9.47
2017-06-15T22:00:33.335Z,11.70
2017-06-15T22:03:00.420Z,10.83
2017-06-15T22:05:27.925Z,14.23
2017-06-15T22:07:53.862Z,9.70
2017-06-15T22:10:21.820Z,9.53
2017-06-15T22:12:49.738Z,9.97
2017-06-15T22:15:16.542Z,9.60
2017-06-15T22:17:47.559Z,10.10
2017-06-15T22:20:13.685Z,9.93
2017-06-15T22:22:39.710Z,11.23
2017-06-15T22:25:05.723Z,15.47
2017-06-15T22:27:31.749Z,10.03
2017-06-15T22:29:57.746Z,10.17
2017-06-15T22:32:24.438Z,10.67
2017-06-15T22:34:50.441Z,10.97
2017-06-15T22:37:16.670Z,10.33
2017-06-15T22:39:42.663Z,9.97
2017-06-15T22:42:08.742Z,10.00
2017-06-15T22:44:35.769Z,9.70
2017-06-15T22:47:03.634Z,9.83
2017-06-15T22:49:29.648Z,9.13
2017-06-15T22:51:55.788Z,9.23
2017-06-15T22:54:22.182Z,9.17
2017-06-15T22:56:48.213Z,8.27
2017-06-15T22:59:14.245Z,7.90
2017-06-15T23:01:41.153Z,10.23
2017-06-15T23:04:08.075Z,7.80
2017-06-15T23:06:34.108Z,7.83
2017-06-15T23:09:01.563Z,8.73
2017-06-15T23:11:27.944Z,6.30
2017-06-15T23:13:54.596Z,6.97
2017-06-15T23:16:22.939Z,8.00
2017-06-15T23:18:50.130Z,6.37
2017-06-15T23:21:16.186Z,6.80
2017-06-15T23:23:42.155Z,5.13
2017-06-15T23:26:08.707Z,5.80
2017-06-15T23:28:34.727Z,7.23
2017-06-15T23:31:01.335Z,6.87
2017-06-15T23:33:27.749Z,5.70
2017-06-15T23:35:58.199Z,7.73
2017-06-15T23:38:25.011Z,5.73
2017-06-15T23:40:51.758Z,5.40
2017-06-15T23:43:17.819Z,5.97
2017-06-15T23:48:24.815Z,6.50
2017-06-15T23:50:52.015Z,7.23
2017-06-15T23:53:19.050Z,7.20
2017-06-15T23:55:45.171Z,5.97
2017-06-15T23:58:12.097Z,7.67
